BOX305 EBBR-EDDF
Flight info
| Callsign | BOX305 |
|---|---|
| Flight time | 0h 49m |
| Altitude | 23000 |
| Route | SPI T180 NIVNU T847 IMCOM IMCOM1A |
| Aircraft | B77L/H-SDE1E2E3FGHIJ2J3J4J5M1RWXY/LB1D1 |
Departure
| Time | 2026-05-04 15:15 |
|---|---|
| Airport | Brussels Airport (EBBR) |
Arrival
| Time | 2026-05-04 16:05 |
|---|---|
| Airport | Frankfurt Main Airport (EDDF) |
| Time | Latitude | Longitude | Altitude | Speed | Heading |
|---|---|---|---|---|---|
| 2026-05-04 14:53 | 50.90320 | 4.45913 | 141 ft | 0 kts | 335° |
| 2026-05-04 15:03 | 50.90308 | 4.45922 | 141 ft | 4 kts | 330° |
| 2026-05-04 15:03 | 50.90287 | 4.45941 | 141 ft | 2 kts | 335° |
| 2026-05-04 15:03 | 50.90262 | 4.45954 | 142 ft | 4 kts | 353° |
| 2026-05-04 15:03 | 50.90236 | 4.45952 | 142 ft | 4 kts | 25° |
| 2026-05-04 15:04 | 50.90216 | 4.45927 | 142 ft | 4 kts | 57° |
| 2026-05-04 15:04 | 50.90205 | 4.45889 | 143 ft | 3 kts | 74° |
| 2026-05-04 15:04 | 50.90198 | 4.45848 | 143 ft | 4 kts | 78° |
| 2026-05-04 15:04 | 50.90193 | 4.45812 | 143 ft | 1 kts | 65° |
| 2026-05-04 15:07 | 50.90197 | 4.45827 | 143 ft | 7 kts | 65° |
| 2026-05-04 15:07 | 50.90230 | 4.45942 | 142 ft | 13 kts | 66° |
| 2026-05-04 15:08 | 50.90266 | 4.46067 | 140 ft | 13 kts | 65° |
| 2026-05-04 15:08 | 50.90302 | 4.46194 | 139 ft | 13 kts | 65° |
| 2026-05-04 15:08 | 50.90341 | 4.46328 | 137 ft | 14 kts | 65° |
| 2026-05-04 15:08 | 50.90361 | 4.46475 | 136 ft | 14 kts | 96° |
| 2026-05-04 15:09 | 50.90320 | 4.46646 | 131 ft | 20 kts | 115° |
| 2026-05-04 15:09 | 50.90255 | 4.46847 | 127 ft | 20 kts | 117° |
| 2026-05-04 15:09 | 50.90194 | 4.47036 | 127 ft | 16 kts | 116° |
| 2026-05-04 15:10 | 50.90236 | 4.47388 | 125 ft | 24 kts | 65° |
| 2026-05-04 15:10 | 50.90317 | 4.47666 | 121 ft | 29 kts | 65° |
| 2026-05-04 15:10 | 50.90483 | 4.48237 | 120 ft | 29 kts | 66° |
| 2026-05-04 15:11 | 50.90563 | 4.48520 | 121 ft | 28 kts | 65° |
| 2026-05-04 15:11 | 50.90646 | 4.48805 | 123 ft | 28 kts | 65° |
| 2026-05-04 15:11 | 50.90729 | 4.49090 | 121 ft | 28 kts | 66° |
| 2026-05-04 15:11 | 50.90811 | 4.49375 | 125 ft | 28 kts | 65° |
| 2026-05-04 15:12 | 50.90882 | 4.49624 | 125 ft | 19 kts | 65° |
| 2026-05-04 15:12 | 50.90939 | 4.49805 | 123 ft | 18 kts | 51° |
| 2026-05-04 15:12 | 50.91029 | 4.49906 | 120 ft | 16 kts | 24° |
| 2026-05-04 15:12 | 50.91131 | 4.49918 | 119 ft | 12 kts | 308° |
| 2026-05-04 15:13 | 50.91118 | 4.49807 | 123 ft | 7 kts | 244° |
| 2026-05-04 15:13 | 50.91117 | 4.49805 | 123 ft | 0 kts | 244° |
| 2026-05-04 15:14 | 50.91111 | 4.49785 | 119 ft | 12 kts | 244° |
| 2026-05-04 15:14 | 50.90997 | 4.49403 | 120 ft | 74 kts | 246° |
| 2026-05-04 15:14 | 50.90685 | 4.48313 | 121 ft | 139 kts | 245° |
| 2026-05-04 15:15 | 50.90220 | 4.46710 | 175 ft | 181 kts | 246° |
| 2026-05-04 15:15 | 50.89694 | 4.44859 | 632 ft | 187 kts | 248° |
| 2026-05-04 15:15 | 50.89188 | 4.42974 | 1248 ft | 187 kts | 249° |
| 2026-05-04 15:16 | 50.88070 | 4.39166 | 2288 ft | 200 kts | 243° |
| 2026-05-04 15:16 | 50.87421 | 4.37134 | 2620 ft | 219 kts | 244° |
| 2026-05-04 15:16 | 50.85948 | 4.32599 | 3884 ft | 228 kts | 245° |
| 2026-05-04 15:17 | 50.85257 | 4.30361 | 4672 ft | 226 kts | 245° |
| 2026-05-04 15:17 | 50.83845 | 4.25730 | 5616 ft | 254 kts | 245° |
| 2026-05-04 15:17 | 50.82939 | 4.23253 | 6004 ft | 267 kts | 227° |
| 2026-05-04 15:18 | 50.81361 | 4.21686 | 6637 ft | 275 kts | 194° |
| 2026-05-04 15:18 | 50.79460 | 4.21733 | 7367 ft | 278 kts | 161° |
| 2026-05-04 15:18 | 50.77686 | 4.22923 | 7995 ft | 281 kts | 155° |
| 2026-05-04 15:19 | 50.74792 | 4.26893 | 9307 ft | 287 kts | 109° |
| 2026-05-04 15:19 | 50.74473 | 4.29980 | 10052 ft | 286 kts | 90° |
| 2026-05-04 15:19 | 50.74560 | 4.36590 | 10659 ft | 326 kts | 88° |
| 2026-05-04 15:20 | 50.74626 | 4.40313 | 10862 ft | 351 kts | 88° |
| 2026-05-04 15:20 | 50.74598 | 4.44281 | 11248 ft | 369 kts | 95° |
| 2026-05-04 15:20 | 50.74171 | 4.48327 | 11954 ft | 378 kts | 104° |
| 2026-05-04 15:20 | 50.73433 | 4.52337 | 12848 ft | 383 kts | 107° |
| 2026-05-04 15:21 | 50.72659 | 4.56396 | 13783 ft | 387 kts | 106° |
| 2026-05-04 15:21 | 50.71881 | 4.60479 | 14594 ft | 392 kts | 107° |
| 2026-05-04 15:21 | 50.70315 | 4.68743 | 16219 ft | 399 kts | 107° |
| 2026-05-04 15:22 | 50.69515 | 4.72975 | 17050 ft | 404 kts | 107° |
| 2026-05-04 15:22 | 50.68708 | 4.77247 | 17834 ft | 409 kts | 107° |
| 2026-05-04 15:22 | 50.67064 | 4.85947 | 19252 ft | 419 kts | 108° |
| 2026-05-04 15:23 | 50.66225 | 4.90379 | 19912 ft | 423 kts | 108° |
| 2026-05-04 15:23 | 50.65378 | 4.94842 | 20560 ft | 428 kts | 108° |
| 2026-05-04 15:23 | 50.64520 | 4.99355 | 21186 ft | 432 kts | 108° |
| 2026-05-04 15:23 | 50.63649 | 5.03920 | 21822 ft | 437 kts | 109° |
| 2026-05-04 15:24 | 50.61943 | 5.12837 | 22950 ft | 447 kts | 109° |
| 2026-05-04 15:24 | 50.60086 | 5.22476 | 22992 ft | 470 kts | 109° |
| 2026-05-04 15:25 | 50.59130 | 5.27424 | 22994 ft | 473 kts | 109° |
| 2026-05-04 15:25 | 50.58173 | 5.32375 | 22987 ft | 473 kts | 109° |
| 2026-05-04 15:25 | 50.57213 | 5.37330 | 22980 ft | 472 kts | 109° |
| 2026-05-04 15:26 | 50.55298 | 5.47179 | 22978 ft | 471 kts | 110° |
| 2026-05-04 15:26 | 50.54661 | 5.50441 | 22973 ft | 470 kts | 110° |
| 2026-05-04 15:26 | 50.52737 | 5.60255 | 22970 ft | 470 kts | 110° |
| 2026-05-04 15:27 | 50.51772 | 5.65156 | 22980 ft | 470 kts | 110° |
| 2026-05-04 15:27 | 50.49831 | 5.74972 | 22987 ft | 471 kts | 110° |
| 2026-05-04 15:28 | 50.47870 | 5.84848 | 22977 ft | 475 kts | 110° |
| 2026-05-04 15:28 | 50.46881 | 5.89809 | 22977 ft | 475 kts | 110° |
| 2026-05-04 15:28 | 50.44907 | 5.99678 | 22991 ft | 474 kts | 110° |
| 2026-05-04 15:29 | 50.43989 | 6.04243 | 22976 ft | 474 kts | 110° |
| 2026-05-04 15:30 | 50.40017 | 6.23910 | 22977 ft | 472 kts | 110° |
| 2026-05-04 15:30 | 50.37034 | 6.38628 | 22972 ft | 473 kts | 109° |
| 2026-05-04 15:31 | 50.35834 | 6.48793 | 22980 ft | 478 kts | 98° |
| 2026-05-04 15:31 | 50.35551 | 6.53986 | 22986 ft | 479 kts | 98° |
| 2026-05-04 15:32 | 50.34660 | 6.69112 | 22965 ft | 449 kts | 99° |
| 2026-05-04 15:32 | 50.34038 | 6.78825 | 22995 ft | 448 kts | 98° |
| 2026-05-04 15:33 | 50.33147 | 6.88458 | 22977 ft | 444 kts | 114° |
| 2026-05-04 15:34 | 50.29053 | 7.01347 | 22991 ft | 442 kts | 118° |
| 2026-05-04 15:34 | 50.27761 | 7.05709 | 22982 ft | 442 kts | 118° |
| 2026-05-04 15:34 | 50.25184 | 7.14420 | 22989 ft | 442 kts | 118° |
| 2026-05-04 15:35 | 50.22585 | 7.23105 | 22997 ft | 441 kts | 118° |
| 2026-05-04 15:35 | 50.21295 | 7.27395 | 22993 ft | 441 kts | 118° |
| 2026-05-04 15:35 | 50.19989 | 7.31724 | 22993 ft | 442 kts | 119° |
| 2026-05-04 15:36 | 50.17668 | 7.40629 | 22979 ft | 445 kts | 113° |
| 2026-05-04 15:36 | 50.16628 | 7.45197 | 22993 ft | 446 kts | 113° |
| 2026-05-04 15:36 | 50.15585 | 7.49756 | 23003 ft | 447 kts | 113° |
| 2026-05-04 15:37 | 50.14522 | 7.54307 | 23000 ft | 448 kts | 114° |
| 2026-05-04 15:37 | 50.13437 | 7.58858 | 22981 ft | 447 kts | 114° |
| 2026-05-04 15:37 | 50.12351 | 7.63377 | 22586 ft | 444 kts | 114° |
| 2026-05-04 15:37 | 50.11329 | 7.67904 | 21975 ft | 441 kts | 109° |
| 2026-05-04 15:38 | 50.10608 | 7.72546 | 21388 ft | 441 kts | 105° |
| 2026-05-04 15:38 | 50.10019 | 7.77219 | 20853 ft | 438 kts | 104° |
| 2026-05-04 15:38 | 50.09468 | 7.81870 | 20272 ft | 436 kts | 103° |
| 2026-05-04 15:38 | 50.08921 | 7.86514 | 19639 ft | 435 kts | 103° |
| 2026-05-04 15:39 | 50.08378 | 7.91144 | 19034 ft | 435 kts | 103° |
| 2026-05-04 15:39 | 50.07833 | 7.95781 | 18424 ft | 434 kts | 103° |
| 2026-05-04 15:39 | 50.06748 | 8.04931 | 17087 ft | 432 kts | 103° |
| 2026-05-04 15:40 | 50.06223 | 8.09537 | 16417 ft | 429 kts | 100° |
| 2026-05-04 15:40 | 50.06082 | 8.14043 | 15706 ft | 407 kts | 89° |
| 2026-05-04 15:40 | 50.06473 | 8.18304 | 15047 ft | 389 kts | 78° |
| 2026-05-04 15:40 | 50.07181 | 8.22266 | 14413 ft | 372 kts | 75° |
| 2026-05-04 15:41 | 50.07956 | 8.26019 | 13806 ft | 355 kts | 73° |
| 2026-05-04 15:41 | 50.08715 | 8.29543 | 13409 ft | 332 kts | 73° |
| 2026-05-04 15:41 | 50.09432 | 8.32833 | 12996 ft | 313 kts | 73° |
| 2026-05-04 15:41 | 50.10118 | 8.35982 | 12426 ft | 301 kts | 74° |
| 2026-05-04 15:42 | 50.10780 | 8.39037 | 11740 ft | 296 kts | 74° |
| 2026-05-04 15:42 | 50.11431 | 8.42059 | 10987 ft | 293 kts | 75° |
| 2026-05-04 15:42 | 50.11956 | 8.44509 | 10441 ft | 290 kts | 75° |
| 2026-05-04 15:42 | 50.12589 | 8.47459 | 9751 ft | 286 kts | 75° |
| 2026-05-04 15:43 | 50.13213 | 8.50368 | 9244 ft | 274 kts | 75° |
| 2026-05-04 15:43 | 50.13809 | 8.53155 | 9257 ft | 277 kts | 75° |
| 2026-05-04 15:43 | 50.14425 | 8.56059 | 9204 ft | 292 kts | 75° |
| 2026-05-04 15:43 | 50.15080 | 8.59134 | 8846 ft | 298 kts | 75° |
| 2026-05-04 15:44 | 50.15731 | 8.62191 | 8363 ft | 303 kts | 74° |
| 2026-05-04 15:44 | 50.16179 | 8.64298 | 8028 ft | 304 kts | 74° |
| 2026-05-04 15:44 | 50.16904 | 8.67713 | 7477 ft | 307 kts | 74° |
| 2026-05-04 15:44 | 50.17613 | 8.70892 | 6940 ft | 313 kts | 72° |
| 2026-05-04 15:45 | 50.18365 | 8.74023 | 6336 ft | 302 kts | 72° |
| 2026-05-04 15:45 | 50.19087 | 8.77025 | 5714 ft | 289 kts | 71° |
| 2026-05-04 15:45 | 50.19800 | 8.79883 | 5126 ft | 277 kts | 70° |
| 2026-05-04 15:45 | 50.20251 | 8.82717 | 4510 ft | 265 kts | 93° |
| 2026-05-04 15:46 | 50.19789 | 8.85338 | 4154 ft | 240 kts | 127° |
| 2026-05-04 15:46 | 50.18593 | 8.86945 | 3994 ft | 223 kts | 162° |
| 2026-05-04 15:46 | 50.17077 | 8.87252 | 4036 ft | 223 kts | 185° |
| 2026-05-04 15:46 | 50.15548 | 8.86848 | 4002 ft | 221 kts | 200° |
| 2026-05-04 15:47 | 50.14368 | 8.85980 | 3997 ft | 216 kts | 215° |
| 2026-05-04 15:47 | 50.13234 | 8.84493 | 3993 ft | 213 kts | 227° |
| 2026-05-04 15:47 | 50.12293 | 8.82712 | 3990 ft | 213 kts | 234° |
| 2026-05-04 15:47 | 50.11485 | 8.80773 | 3991 ft | 212 kts | 240° |
| 2026-05-04 15:48 | 50.10792 | 8.78744 | 3724 ft | 209 kts | 243° |
| 2026-05-04 15:48 | 50.10197 | 8.76767 | 3449 ft | 199 kts | 248° |
| 2026-05-04 15:48 | 50.09311 | 8.73171 | 3008 ft | 158 kts | 252° |
| 2026-05-04 15:49 | 50.08916 | 8.71549 | 3066 ft | 163 kts | 251° |
| 2026-05-04 15:49 | 50.08500 | 8.69793 | 3271 ft | 192 kts | 252° |
| 2026-05-04 15:49 | 50.08228 | 8.67712 | 3575 ft | 205 kts | 277° |
| 2026-05-04 15:49 | 50.08745 | 8.65772 | 3818 ft | 195 kts | 313° |
| 2026-05-04 15:50 | 50.09965 | 8.64707 | 3982 ft | 214 kts | 344° |
| 2026-05-04 15:50 | 50.11478 | 8.64617 | 4030 ft | 219 kts | 2° |
| 2026-05-04 15:50 | 50.13011 | 8.64796 | 3983 ft | 218 kts | 2° |
| 2026-05-04 15:50 | 50.14513 | 8.65012 | 3978 ft | 216 kts | 3° |
| 2026-05-04 15:51 | 50.16006 | 8.65247 | 3990 ft | 216 kts | 4° |
| 2026-05-04 15:51 | 50.17509 | 8.65480 | 3985 ft | 217 kts | 3° |
| 2026-05-04 15:51 | 50.18503 | 8.65631 | 3977 ft | 215 kts | 5° |
| 2026-05-04 15:51 | 50.19683 | 8.66186 | 3966 ft | 213 kts | 36° |
| 2026-05-04 15:52 | 50.20525 | 8.68076 | 3975 ft | 221 kts | 80° |
| 2026-05-04 15:52 | 50.20343 | 8.70431 | 4001 ft | 223 kts | 115° |
| 2026-05-04 15:52 | 50.19738 | 8.72658 | 4005 ft | 223 kts | 112° |
| 2026-05-04 15:52 | 50.19387 | 8.74999 | 3980 ft | 222 kts | 89° |
| 2026-05-04 15:53 | 50.19561 | 8.77365 | 4004 ft | 221 kts | 83° |
| 2026-05-04 15:53 | 50.19760 | 8.79772 | 3997 ft | 225 kts | 83° |
| 2026-05-04 15:53 | 50.19953 | 8.82200 | 3991 ft | 225 kts | 83° |
| 2026-05-04 15:53 | 50.20243 | 8.84528 | 3996 ft | 220 kts | 75° |
| 2026-05-04 15:54 | 50.20670 | 8.86859 | 3997 ft | 221 kts | 74° |
| 2026-05-04 15:54 | 50.21103 | 8.89144 | 3996 ft | 223 kts | 74° |
| 2026-05-04 15:54 | 50.21544 | 8.91459 | 4012 ft | 223 kts | 73° |
| 2026-05-04 15:54 | 50.21985 | 8.93779 | 4002 ft | 224 kts | 73° |
| 2026-05-04 15:55 | 50.22432 | 8.96110 | 3988 ft | 223 kts | 73° |
| 2026-05-04 15:55 | 50.22883 | 8.98430 | 4008 ft | 224 kts | 73° |
| 2026-05-04 15:55 | 50.23335 | 9.00754 | 4022 ft | 223 kts | 73° |
| 2026-05-04 15:55 | 50.23725 | 9.03071 | 3989 ft | 214 kts | 88° |
| 2026-05-04 15:56 | 50.23327 | 9.05226 | 4002 ft | 208 kts | 135° |
| 2026-05-04 15:56 | 50.22163 | 9.06315 | 3997 ft | 190 kts | 172° |
| 2026-05-04 15:56 | 50.20874 | 9.06435 | 4012 ft | 186 kts | 189° |
| 2026-05-04 15:56 | 50.19591 | 9.05836 | 3998 ft | 199 kts | 211° |
| 2026-05-04 15:57 | 50.18552 | 9.04401 | 3982 ft | 202 kts | 237° |
| 2026-05-04 15:57 | 50.17843 | 9.02500 | 3998 ft | 206 kts | 242° |
| 2026-05-04 15:57 | 50.17170 | 9.00515 | 3989 ft | 208 kts | 242° |
| 2026-05-04 15:57 | 50.16483 | 8.98539 | 3992 ft | 206 kts | 242° |
| 2026-05-04 15:58 | 50.15881 | 8.96810 | 3984 ft | 207 kts | 241° |
| 2026-05-04 15:58 | 50.15197 | 8.94851 | 3964 ft | 204 kts | 242° |
| 2026-05-04 15:58 | 50.14528 | 8.92964 | 3976 ft | 194 kts | 241° |
| 2026-05-04 15:58 | 50.13872 | 8.91135 | 3988 ft | 200 kts | 241° |
| 2026-05-04 15:59 | 50.13214 | 8.89145 | 4006 ft | 213 kts | 245° |
| 2026-05-04 15:59 | 50.12624 | 8.86982 | 3998 ft | 223 kts | 248° |
| 2026-05-04 15:59 | 50.12057 | 8.84680 | 4003 ft | 232 kts | 249° |
| 2026-05-04 15:59 | 50.11499 | 8.82344 | 3989 ft | 224 kts | 249° |
| 2026-05-04 16:00 | 50.10995 | 8.80225 | 3938 ft | 193 kts | 249° |
| 2026-05-04 16:00 | 50.10541 | 8.78323 | 3679 ft | 185 kts | 250° |
| 2026-05-04 16:00 | 50.10093 | 8.76447 | 3445 ft | 186 kts | 250° |
| 2026-05-04 16:00 | 50.09659 | 8.74632 | 3190 ft | 168 kts | 251° |
| 2026-05-04 16:01 | 50.09275 | 8.73022 | 2950 ft | 152 kts | 252° |
| 2026-05-04 16:01 | 50.08909 | 8.71486 | 2779 ft | 150 kts | 253° |
| 2026-05-04 16:01 | 50.08543 | 8.69958 | 2576 ft | 150 kts | 253° |
| 2026-05-04 16:01 | 50.08192 | 8.68488 | 2371 ft | 149 kts | 252° |
| 2026-05-04 16:02 | 50.07834 | 8.66982 | 2201 ft | 148 kts | 252° |
| 2026-05-04 16:02 | 50.07480 | 8.65495 | 1989 ft | 144 kts | 252° |
| 2026-05-04 16:02 | 50.06798 | 8.62634 | 1616 ft | 142 kts | 251° |
| 2026-05-04 16:03 | 50.06448 | 8.61194 | 1406 ft | 142 kts | 252° |
| 2026-05-04 16:03 | 50.06106 | 8.59744 | 1258 ft | 146 kts | 251° |
| 2026-05-04 16:03 | 50.05754 | 8.58293 | 1011 ft | 144 kts | 253° |
| 2026-05-04 16:03 | 50.05413 | 8.56867 | 850 ft | 140 kts | 252° |
| 2026-05-04 16:04 | 50.05073 | 8.55427 | 676 ft | 143 kts | 252° |
| 2026-05-04 16:04 | 50.04394 | 8.52598 | 360 ft | 129 kts | 253° |
| 2026-05-04 16:04 | 50.04134 | 8.51498 | 336 ft | 62 kts | 249° |
| 2026-05-04 16:05 | 50.04017 | 8.51087 | 329 ft | 37 kts | 230° |
| 2026-05-04 16:05 | 50.03891 | 8.50896 | 327 ft | 13 kts | 219° |
| 2026-05-04 16:05 | 50.03817 | 8.50839 | 333 ft | 0 kts | 173° |
| 2026-05-04 16:06 | 50.03781 | 8.50888 | 334 ft | 17 kts | 126° |
| 2026-05-04 16:06 | 50.03627 | 8.51365 | 360 ft | 18 kts | 116° |
| 2026-05-04 16:07 | 50.03565 | 8.51560 | 366 ft | 12 kts | 116° |
| 2026-05-04 16:07 | 50.03524 | 8.51971 | 353 ft | 18 kts | 83° |
| 2026-05-04 16:08 | 50.03539 | 8.52163 | 350 ft | 19 kts | 83° |
| 2026-05-04 16:08 | 50.03620 | 8.52696 | 356 ft | 8 kts | 13° |
| 2026-05-04 16:09 | 50.03706 | 8.52651 | 355 ft | 0 kts | 339° |